Vigil, Colorado
Current Conditions -  °F | °C
As of 6:50 AM on Friday 31 Oct 2014 (Local Time) from KVTP Reporting Station
Clear Clear  
Wind Chill: 22°   Ceiling: Unl
Heat Index: 32°   Visibility: 10mi
Dew Point: 19°   Wind: 14mph
Humidity: 60%   Direction: 190°S
Pressure: 30.45"   Gusts: 25mph
Location:  37.1566°N, 104.956°W
Report Text: KVTP 311250Z AUTO 19012G22KT 160V220 10SM CLR 00/M07 A3045 RMK AO2
Loading
Personal Weather Stations






























Interactive Weather Map
Tropical Storm Tracking
New forecast layout! Learn more

10-Day Weather Forecast

Advertisements
Track Severe Weather on mobile